Terminal Aerodrome Forecast
Issued by NWS Greer, SC

Home | Current Version | Previous Version | Text Only | Print | Product List | Glossary On
Versions: 1 2 3 4 5 6 7 8 9 10 11 12 13 14 15 16 17 18 19 20 21 22 23 24 25 26 27
000
FTUS42 KGSP 292330
TAFCLT
TAF
KCLT 292330Z 3000/3024 06006KT P6SM FEW060 BKN250
     FM301400 04008KT P6SM FEW050 BKN250
     FM301800 04009KT P6SM SCT060 BKN250=

USA.gov is the U.S. government's official web portal to all federal, state and local government web resources and services.